Time;durP1;ratioP1;P1;durP2;ratioP2;P2;SDS_P1;SDS_P2;PMS_P1;PMS_P2;Temp;Humidity;BMP_temperature;BMP_pressure;BME280_temperature;BME280_humidity;BME280_pressure;Samples;Min_cycle;Max_cycle;Signal;HPM_P1;HPM_P2
2023/08/11 00:00:50;;;;;;;;;5.00;3.33;;;;;;;;4846337;29;45525;-64
2023/08/11 00:03:16;;;;;;;;;2.67;2.67;;;;;;;;4846657;29;45456;-64
2023/08/11 00:05:41;;;;;;;;;3.00;3.00;;;;;;;;4846733;29;45465;-64
2023/08/11 00:08:08;;;;;;;;;3.00;3.00;;;;;;;;4845973;29;45576;-64
2023/08/11 00:10:33;;;;;;;;;4.67;4.33;;;;;;;;4846161;29;45263;-64
2023/08/11 00:12:59;;;;;;;;;4.00;3.00;;;;;;;;4846280;29;45316;-64
2023/08/11 00:15:24;;;;;;;;;5.00;4.00;;;;;;;;4846717;29;45465;-64
2023/08/11 00:17:52;;;;;;;;;6.67;5.33;;;;;;;;4845779;29;46791;-64
2023/08/11 00:20:17;;;;;;;;;3.00;3.00;;;;;;;;4845853;29;45463;-64
2023/08/11 00:22:42;;;;;;;;;4.00;3.00;;;;;;;;4846531;29;45381;-64
2023/08/11 00:25:08;;;;;;;;;5.00;5.00;;;;;;;;4846279;29;45577;-62
2023/08/11 00:27:33;;;;;;;;;2.33;2.33;;;;;;;;4846106;29;46468;-61
2023/08/11 00:29:58;;;;;;;;;5.00;3.33;;;;;;;;4845883;29;45347;-62
2023/08/11 00:32:24;;;;;;;;;3.33;3.00;;;;;;;;4846434;29;45275;-61
2023/08/11 00:34:50;;;;;;;;;4.67;3.00;;;;;;;;4846225;29;45514;-61
2023/08/11 00:37:15;;;;;;;;;2.33;2.33;;;;;;;;4845706;29;46164;-61
2023/08/11 00:39:40;;;;;;;;;6.00;3.00;;;;;;;;4846040;29;45314;-61
2023/08/11 00:42:05;;;;;;;;;3.33;3.00;;;;;;;;4845782;29;45436;-61
2023/08/11 00:44:31;;;;;;;;;3.00;3.00;;;;;;;;4846174;29;45275;-61
2023/08/11 00:46:56;;;;;;;;;3.67;3.67;;;;;;;;4846109;29;46775;-61
2023/08/11 00:49:22;;;;;;;;;3.00;2.67;;;;;;;;4845728;29;45371;-62
2023/08/11 00:51:47;;;;;;;;;4.67;3.67;;;;;;;;4845632;29;45297;-61
2023/08/11 00:54:12;;;;;;;;;3.33;3.33;;;;;;;;4846399;29;45349;-61
2023/08/11 00:56:44;;;;;;;;;8.00;5.33;;;;;;;;4845627;29;45766;-61
2023/08/11 00:59:09;;;;;;;;;5.33;5.33;;;;;;;;4845989;29;45287;-61
2023/08/11 01:01:35;;;;;;;;;7.00;4.00;;;;;;;;4845174;29;45418;-61
2023/08/11 01:04:00;;;;;;;;;4.33;4.33;;;;;;;;4845649;29;45562;-61
2023/08/11 01:06:44;;;;;;;;;4.00;4.00;;;;;;;;4845653;29;45365;-61
2023/08/11 01:09:09;;;;;;;;;5.33;4.00;;;;;;;;4845400;29;45325;-61
2023/08/11 01:11:41;;;;;;;;;3.00;3.00;;;;;;;;4844281;29;45424;-61
2023/08/11 01:14:11;;;;;;;;;6.33;4.67;;;;;;;;4845652;29;45284;-61
2023/08/11 01:16:37;;;;;;;;;5.67;3.00;;;;;;;;4845340;29;46248;-61
2023/08/11 01:19:04;;;;;;;;;7.00;5.00;;;;;;;;4845481;29;45385;-61
2023/08/11 01:21:32;;;;;;;;;2.33;2.33;;;;;;;;4845886;29;45582;-61
2023/08/11 01:23:57;;;;;;;;;4.67;3.00;;;;;;;;4844989;29;45506;-61
2023/08/11 01:26:22;;;;;;;;;5.00;4.00;;;;;;;;4845327;29;46324;-62
2023/08/11 01:28:51;;;;;;;;;3.00;3.00;;;;;;;;4845263;29;45392;-61
2023/08/11 01:31:17;;;;;;;;;5.00;4.00;;;;;;;;4845611;29;45313;-61
2023/08/11 01:33:42;;;;;;;;;3.00;3.00;;;;;;;;4845175;29;45388;-61
2023/08/11 01:36:08;;;;;;;;;4.33;4.00;;;;;;;;4845182;29;45399;-61
2023/08/11 01:38:34;;;;;;;;;4.67;4.67;;;;;;;;4845050;29;45366;-61
2023/08/11 01:40:59;;;;;;;;;4.00;4.00;;;;;;;;4845442;29;45442;-61
2023/08/11 01:43:25;;;;;;;;;6.33;4.67;;;;;;;;4845360;29;45350;-62
2023/08/11 01:45:50;;;;;;;;;5.67;5.00;;;;;;;;4844940;29;45601;-63
2023/08/11 01:48:17;;;;;;;;;5.33;3.00;;;;;;;;4845139;29;45310;-61
2023/08/11 01:50:43;;;;;;;;;7.00;4.33;;;;;;;;4844854;29;45258;-62
2023/08/11 01:53:09;;;;;;;;;3.33;3.33;;;;;;;;4845312;29;45506;-61
2023/08/11 01:55:35;;;;;;;;;5.33;4.00;;;;;;;;4844319;29;45567;-62
2023/08/11 01:58:00;;;;;;;;;3.33;3.33;;;;;;;;4845086;29;45750;-61
2023/08/11 02:00:26;;;;;;;;;3.33;3.33;;;;;;;;4844878;29;45598;-61
2023/08/11 02:02:52;;;;;;;;;3.67;3.67;;;;;;;;4845065;29;45456;-61
2023/08/11 02:05:17;;;;;;;;;7.67;6.33;;;;;;;;4844333;29;47247;-61
2023/08/11 02:07:43;;;;;;;;;3.67;3.67;;;;;;;;4844511;29;45372;-61
2023/08/11 02:10:08;;;;;;;;;5.00;3.67;;;;;;;;4844967;29;45403;-61
2023/08/11 02:12:34;;;;;;;;;6.00;5.00;;;;;;;;4844796;29;45498;-63
2023/08/11 02:14:59;;;;;;;;;4.00;4.00;;;;;;;;4844146;29;45718;-63
2023/08/11 02:17:25;;;;;;;;;5.67;4.00;;;;;;;;4844744;29;45359;-63
2023/08/11 02:19:51;;;;;;;;;7.67;5.33;;;;;;;;4844887;29;45222;-64
2023/08/11 02:22:16;;;;;;;;;3.33;3.00;;;;;;;;4844981;29;45315;-63
2023/08/11 02:24:41;;;;;;;;;4.00;3.33;;;;;;;;4844019;29;45519;-63
2023/08/11 02:27:09;;;;;;;;;4.00;4.00;;;;;;;;4843993;29;45435;-63
2023/08/11 02:29:34;;;;;;;;;3.00;3.00;;;;;;;;4844662;29;45442;-62
2023/08/11 02:32:03;;;;;;;;;4.00;3.00;;;;;;;;4844969;29;45364;-60
2023/08/11 02:34:28;;;;;;;;;4.00;4.00;;;;;;;;4844354;29;46562;-60
2023/08/11 02:36:53;;;;;;;;;5.00;4.67;;;;;;;;4843838;29;45432;-60
2023/08/11 02:39:18;;;;;;;;;5.00;5.00;;;;;;;;4844270;29;45285;-61
2023/08/11 02:41:43;;;;;;;;;4.00;3.33;;;;;;;;4849434;29;45654;-61
2023/08/11 02:44:09;;;;;;;;;5.00;5.00;;;;;;;;4850383;29;45420;-61
2023/08/11 02:46:34;;;;;;;;;5.67;5.00;;;;;;;;4850192;29;45722;-61
2023/08/11 02:48:59;;;;;;;;;4.33;4.33;;;;;;;;4850536;29;45408;-63
2023/08/11 02:51:24;;;;;;;;;5.00;5.00;;;;;;;;4850649;29;45389;-62
2023/08/11 02:53:49;;;;;;;;;5.33;5.33;;;;;;;;4850334;29;46606;-62
2023/08/11 02:56:15;;;;;;;;;6.67;5.00;;;;;;;;4850282;29;45471;-61
2023/08/11 02:58:43;;;;;;;;;6.33;6.00;;;;;;;;4850027;29;45304;-63
2023/08/11 03:01:08;;;;;;;;;5.67;5.00;;;;;;;;4850557;29;45473;-62
2023/08/11 03:03:33;;;;;;;;;8.00;6.00;;;;;;;;4850118;29;45494;-62
2023/08/11 03:05:59;;;;;;;;;6.67;5.00;;;;;;;;4850319;29;45327;-62
2023/08/11 03:08:24;;;;;;;;;6.33;5.00;;;;;;;;4849620;29;45334;-61
2023/08/11 03:10:49;;;;;;;;;6.00;4.67;;;;;;;;4850268;29;45323;-61
2023/08/11 03:13:15;;;;;;;;;5.00;4.00;;;;;;;;4850269;29;45528;-63
2023/08/11 03:15:40;;;;;;;;;6.67;5.00;;;;;;;;4850077;29;45439;-61
2023/08/11 03:18:05;;;;;;;;;4.67;4.33;;;;;;;;4849859;29;45434;-61
2023/08/11 03:20:31;;;;;;;;;6.67;5.00;;;;;;;;4850550;29;45312;-61
2023/08/11 03:22:56;;;;;;;;;6.00;4.67;;;;;;;;4850183;29;46580;-61
2023/08/11 03:25:21;;;;;;;;;4.33;4.00;;;;;;;;4849882;29;45441;-61
2023/08/11 03:27:46;;;;;;;;;4.33;4.00;;;;;;;;4850011;29;45292;-61
2023/08/11 03:30:12;;;;;;;;;6.00;6.00;;;;;;;;4850064;29;45398;-61
2023/08/11 03:32:40;;;;;;;;;5.67;5.00;;;;;;;;4849832;29;46551;-63
2023/08/11 03:35:06;;;;;;;;;5.67;5.00;;;;;;;;4849895;29;45329;-63
2023/08/11 03:37:31;;;;;;;;;8.00;5.67;;;;;;;;4849978;29;45382;-63
2023/08/11 03:39:57;;;;;;;;;5.67;4.00;;;;;;;;4849446;29;45478;-63
2023/08/11 03:42:22;;;;;;;;;6.33;5.33;;;;;;;;4849648;29;46369;-63
2023/08/11 03:44:48;;;;;;;;;6.67;6.00;;;;;;;;4849741;29;45824;-63
2023/08/11 03:47:13;;;;;;;;;6.00;5.00;;;;;;;;4849994;29;45364;-63
2023/08/11 03:49:38;;;;;;;;;5.00;5.00;;;;;;;;4849412;29;45432;-63
2023/08/11 03:52:03;;;;;;;;;4.00;4.00;;;;;;;;4847922;29;46387;-63
2023/08/11 03:54:28;;;;;;;;;8.00;7.00;;;;;;;;4846666;29;45304;-63
2023/08/11 03:56:54;;;;;;;;;5.67;4.33;;;;;;;;4846584;29;45217;-63
2023/08/11 03:59:19;;;;;;;;;8.67;4.67;;;;;;;;4847064;29;45423;-63
2023/08/11 04:01:45;;;;;;;;;5.00;5.00;;;;;;;;4845807;29;46303;-63
2023/08/11 04:04:10;;;;;;;;;5.67;5.67;;;;;;;;4846475;29;45358;-63
2023/08/11 04:06:35;;;;;;;;;6.67;5.33;;;;;;;;4846725;29;45367;-62
2023/08/11 04:09:01;;;;;;;;;9.00;7.33;;;;;;;;4846592;29;45345;-65
2023/08/11 04:11:27;;;;;;;;;9.33;6.33;;;;;;;;4845845;29;46463;-66
2023/08/11 04:13:52;;;;;;;;;8.00;7.00;;;;;;;;4846134;29;45457;-65
2023/08/11 04:16:17;;;;;;;;;5.00;4.67;;;;;;;;4846393;29;45481;-66
2023/08/11 04:18:43;;;;;;;;;6.67;6.67;;;;;;;;4846724;29;45404;-65
2023/08/11 04:21:08;;;;;;;;;5.33;4.33;;;;;;;;4845820;29;45472;-66
2023/08/11 04:23:33;;;;;;;;;7.00;7.00;;;;;;;;4846481;29;45412;-66
2023/08/11 04:25:58;;;;;;;;;6.33;6.33;;;;;;;;4846238;29;45466;-66
2023/08/11 04:28:23;;;;;;;;;5.00;5.00;;;;;;;;4846656;29;45468;-66
2023/08/11 04:30:49;;;;;;;;;8.00;7.00;;;;;;;;4846023;29;47312;-66
2023/08/11 04:33:15;;;;;;;;;6.00;6.00;;;;;;;;4845902;29;45406;-66
2023/08/11 04:35:40;;;;;;;;;7.67;6.33;;;;;;;;4846496;29;45235;-66
2023/08/11 04:38:05;;;;;;;;;6.67;5.67;;;;;;;;4846199;29;45226;-66
2023/08/11 04:40:31;;;;;;;;;7.00;7.00;;;;;;;;4845842;29;45642;-66
2023/08/11 04:42:56;;;;;;;;;8.00;6.33;;;;;;;;4845611;29;45338;-66
2023/08/11 04:45:22;;;;;;;;;7.33;6.00;;;;;;;;4845908;29;45252;-65
2023/08/11 04:47:47;;;;;;;;;7.67;6.33;;;;;;;;4846463;29;45247;-65
2023/08/11 04:50:12;;;;;;;;;7.00;5.33;;;;;;;;4845632;29;45472;-66
2023/08/11 04:52:38;;;;;;;;;6.00;5.00;;;;;;;;4844145;29;45275;-65
2023/08/11 04:55:04;;;;;;;;;11.33;6.67;;;;;;;;4846045;29;45281;-65
2023/08/11 04:57:29;;;;;;;;;12.67;10.00;;;;;;;;4845983;29;45297;-65
2023/08/11 04:59:54;;;;;;;;;5.67;4.33;;;;;;;;4845844;29;46142;-65
2023/08/11 05:02:20;;;;;;;;;5.67;5.67;;;;;;;;4845994;29;45638;-65
2023/08/11 05:04:45;;;;;;;;;9.33;8.00;;;;;;;;4844937;29;45414;-65
2023/08/11 05:07:10;;;;;;;;;10.00;6.00;;;;;;;;4845996;29;45329;-65
2023/08/11 05:09:35;;;;;;;;;8.00;6.00;;;;;;;;4845602;29;45409;-65
2023/08/11 05:12:01;;;;;;;;;10.00;7.67;;;;;;;;4845387;29;45416;-65
2023/08/11 05:14:26;;;;;;;;;7.00;6.00;;;;;;;;4845132;29;45490;-65
2023/08/11 05:16:51;;;;;;;;;5.67;5.00;;;;;;;;4845996;29;45345;-65
2023/08/11 05:19:16;;;;;;;;;9.00;9.00;;;;;;;;4845250;29;45613;-66
2023/08/11 05:21:42;;;;;;;;;13.67;8.00;;;;;;;;4845618;29;45449;-65
2023/08/11 05:24:07;;;;;;;;;10.00;10.00;;;;;;;;4845019;29;45346;-62
2023/08/11 05:26:32;;;;;;;;;8.00;7.00;;;;;;;;4845234;29;45411;-63
2023/08/11 05:28:58;;;;;;;;;11.67;9.67;;;;;;;;4845427;29;46520;-63
2023/08/11 05:31:23;;;;;;;;;12.00;10.00;;;;;;;;4845277;29;45369;-63
2023/08/11 05:33:48;;;;;;;;;9.00;9.00;;;;;;;;4845495;29;45477;-64
2023/08/11 05:36:13;;;;;;;;;12.33;11.33;;;;;;;;4845344;29;45753;-61
2023/08/11 05:38:38;;;;;;;;;6.67;6.67;;;;;;;;4845096;29;45610;-60
2023/08/11 05:41:04;;;;;;;;;9.33;9.33;;;;;;;;4845196;29;45564;-60
2023/08/11 05:43:29;;;;;;;;;11.67;9.00;;;;;;;;4845185;29;45401;-60
2023/08/11 05:45:54;;;;;;;;;10.67;9.67;;;;;;;;4844949;29;45600;-60
2023/08/11 05:48:19;;;;;;;;;7.33;7.33;;;;;;;;4845137;29;46333;-61
2023/08/11 05:50:45;;;;;;;;;9.33;9.00;;;;;;;;4844684;29;45317;-62
2023/08/11 05:53:10;;;;;;;;;10.00;8.67;;;;;;;;4845384;29;45403;-61
2023/08/11 05:55:35;;;;;;;;;10.67;8.00;;;;;;;;4844742;29;45264;-62
2023/08/11 05:58:01;;;;;;;;;17.33;15.67;;;;;;;;4844819;29;45355;-62
2023/08/11 06:00:26;;;;;;;;;12.67;10.33;;;;;;;;4844900;29;45459;-62
2023/08/11 06:02:51;;;;;;;;;10.00;9.67;;;;;;;;4844744;29;45310;-62
2023/08/11 06:05:17;;;;;;;;;11.00;8.67;;;;;;;;4845205;29;45217;-62
2023/08/11 06:07:42;;;;;;;;;10.67;9.33;;;;;;;;4844259;29;45552;-62
2023/08/11 06:10:08;;;;;;;;;8.33;8.33;;;;;;;;4844815;29;45365;-62
2023/08/11 06:12:33;;;;;;;;;10.67;7.33;;;;;;;;4844462;29;45263;-62
2023/08/11 06:14:58;;;;;;;;;6.33;6.33;;;;;;;;4844413;29;45426;-62
2023/08/11 06:17:24;;;;;;;;;7.67;7.00;;;;;;;;4843985;29;45332;-62
2023/08/11 06:19:49;;;;;;;;;7.33;6.33;;;;;;;;4844668;29;45337;-62
2023/08/11 06:22:14;;;;;;;;;6.67;6.67;;;;;;;;4844660;29;45377;-62
2023/08/11 06:24:40;;;;;;;;;6.33;6.33;;;;;;;;4844634;29;45312;-62
2023/08/11 06:27:06;;;;;;;;;7.67;7.67;;;;;;;;4843750;29;46263;-62
2023/08/11 06:29:31;;;;;;;;;10.00;7.00;;;;;;;;4844505;29;45308;-62
2023/08/11 06:31:56;;;;;;;;;8.00;6.33;;;;;;;;4844572;29;45471;-62
2023/08/11 06:34:21;;;;;;;;;13.33;13.33;;;;;;;;4844944;29;45341;-62
2023/08/11 06:36:47;;;;;;;;;18.00;18.00;;;;;;;;4844250;29;46981;-62
2023/08/11 06:39:13;;;;;;;;;10.33;9.00;;;;;;;;4843706;29;45394;-62
2023/08/11 06:41:42;;;;;;;;;16.00;9.33;;;;;;;;4844468;29;45721;-65
2023/08/11 06:44:08;;;;;;;;;12.33;10.67;;;;;;;;4844581;29;45291;-65
2023/08/11 06:46:34;;;;;;;;;9.00;8.00;;;;;;;;4843396;29;46133;-65
2023/08/11 06:48:59;;;;;;;;;8.00;8.00;;;;;;;;4843748;29;45458;-66
2023/08/11 06:51:24;;;;;;;;;8.33;7.00;;;;;;;;4841145;29;46347;-64
2023/08/11 06:53:49;;;;;;;;;9.33;5.67;;;;;;;;4844244;29;45452;-63
2023/08/11 06:56:15;;;;;;;;;4.33;4.00;;;;;;;;4843415;29;46303;-62
2023/08/11 06:58:40;;;;;;;;;8.33;6.33;;;;;;;;4843255;29;45494;-62
2023/08/11 07:01:05;;;;;;;;;7.00;5.67;;;;;;;;4843562;29;45387;-62
2023/08/11 07:03:33;;;;;;;;;8.67;8.33;;;;;;;;4843839;29;45563;-62
2023/08/11 07:05:58;;;;;;;;;9.00;5.67;;;;;;;;4843185;29;46645;-62
2023/08/11 07:08:23;;;;;;;;;9.00;8.00;;;;;;;;4843074;29;45547;-63
2023/08/11 07:10:48;;;;;;;;;7.67;6.00;;;;;;;;4842974;29;45478;-62
2023/08/11 07:13:14;;;;;;;;;8.67;7.67;;;;;;;;4843434;29;45391;-63
2023/08/11 07:15:40;;;;;;;;;5.33;5.33;;;;;;;;4843145;29;46702;-64
2023/08/11 07:18:05;;;;;;;;;10.33;6.00;;;;;;;;4843687;29;45349;-64
2023/08/11 07:20:31;;;;;;;;;8.00;8.00;;;;;;;;4842306;29;45320;-64
2023/08/11 07:22:56;;;;;;;;;7.00;7.00;;;;;;;;4843459;29;45660;-65
2023/08/11 07:25:21;;;;;;;;;8.33;8.33;;;;;;;;4842986;29;45467;-64
2023/08/11 07:27:46;;;;;;;;;7.00;7.00;;;;;;;;4845292;29;45644;-64
2023/08/11 07:30:11;;;;;;;;;9.33;9.00;;;;;;;;4846500;29;45867;-64
2023/08/11 07:32:37;;;;;;;;;9.33;9.00;;;;;;;;4846410;29;45454;-64
2023/08/11 07:35:02;;;;;;;;;7.00;7.00;;;;;;;;4845986;29;46322;-63
2023/08/11 07:37:27;;;;;;;;;12.33;9.67;;;;;;;;4845976;29;45318;-63
2023/08/11 07:39:52;;;;;;;;;8.00;8.00;;;;;;;;4846602;29;45254;-63
2023/08/11 07:42:18;;;;;;;;;7.00;7.00;;;;;;;;4845861;29;45456;-64
2023/08/11 07:44:43;;;;;;;;;13.00;10.67;;;;;;;;4845839;29;45811;-63
2023/08/11 07:47:08;;;;;;;;;9.33;9.33;;;;;;;;4846316;29;45306;-64
2023/08/11 07:49:34;;;;;;;;;8.00;8.00;;;;;;;;4846101;29;45313;-65
2023/08/11 07:51:59;;;;;;;;;12.00;10.00;;;;;;;;4845233;29;45429;-63
2023/08/11 07:54:24;;;;;;;;;6.67;6.00;;;;;;;;4846021;29;46309;-64
2023/08/11 07:56:49;;;;;;;;;7.67;7.67;;;;;;;;4845752;29;45337;-65
2023/08/11 07:59:15;;;;;;;;;8.00;7.00;;;;;;;;4845703;29;45373;-65
2023/08/11 08:01:41;;;;;;;;;7.33;6.00;;;;;;;;4845185;29;45447;-65
2023/08/11 08:04:06;;;;;;;;;6.67;6.67;;;;;;;;4845433;29;46254;-65
2023/08/11 08:06:32;;;;;;;;;5.00;5.00;;;;;;;;4846263;29;45365;-63
2023/08/11 08:08:57;;;;;;;;;7.33;5.67;;;;;;;;4846158;29;45322;-65
2023/08/11 08:11:23;;;;;;;;;5.67;4.00;;;;;;;;4846976;29;45296;-65
2023/08/11 08:13:48;;;;;;;;;6.67;5.00;;;;;;;;4845687;29;45587;-65
2023/08/11 08:16:15;;;;;;;;;4.67;4.67;;;;;;;;4846349;29;45290;-63
2023/08/11 08:18:40;;;;;;;;;4.00;4.00;;;;;;;;4846531;29;45320;-63
2023/08/11 08:21:06;;;;;;;;;3.00;3.00;;;;;;;;4846565;29;45485;-63
2023/08/11 08:23:31;;;;;;;;;5.33;5.00;;;;;;;;4845989;29;46404;-63
2023/08/11 08:25:56;;;;;;;;;8.00;6.00;;;;;;;;4845865;29;45309;-63
2023/08/11 08:28:22;;;;;;;;;8.00;5.00;;;;;;;;4845997;29;45420;-63
2023/08/11 08:30:47;;;;;;;;;6.00;5.00;;;;;;;;4846115;29;45395;-62
2023/08/11 08:33:12;;;;;;;;;7.00;6.00;;;;;;;;4845442;29;46137;-63
2023/08/11 08:35:38;;;;;;;;;8.00;6.00;;;;;;;;4846053;29;45636;-63
2023/08/11 08:38:03;;;;;;;;;7.33;7.00;;;;;;;;4845734;29;45228;-63
2023/08/11 08:40:29;;;;;;;;;6.00;3.33;;;;;;;;4846358;29;45451;-65
2023/08/11 08:42:54;;;;;;;;;6.00;6.00;;;;;;;;4846263;29;45426;-65
2023/08/11 08:45:21;;;;;;;;;5.00;5.00;;;;;;;;4846082;29;45378;-66
2023/08/11 08:47:48;;;;;;;;;6.00;5.00;;;;;;;;4846261;29;45477;-66
2023/08/11 08:50:13;;;;;;;;;6.00;5.67;;;;;;;;4846259;29;45417;-65
2023/08/11 08:52:39;;;;;;;;;8.00;6.00;;;;;;;;4846063;29;45254;-63
2023/08/11 08:55:05;;;;;;;;;6.00;6.00;;;;;;;;4845683;29;45419;-63
2023/08/11 08:57:30;;;;;;;;;8.00;6.00;;;;;;;;4846168;29;45304;-63
2023/08/11 08:59:56;;;;;;;;;6.67;5.00;;;;;;;;4846129;29;45378;-63
2023/08/11 09:02:24;;;;;;;;;5.00;4.00;;;;;;;;4845560;29;46297;-63
2023/08/11 09:04:50;;;;;;;;;9.33;5.33;;;;;;;;4845450;29;45640;-63
2023/08/11 09:07:15;;;;;;;;;9.00;6.67;;;;;;;;4845480;29;45404;-63
2023/08/11 09:09:40;;;;;;;;;7.67;4.33;;;;;;;;4845902;29;45293;-63
2023/08/11 09:12:06;;;;;;;;;6.00;6.00;;;;;;;;4845588;29;46646;-63
2023/08/11 09:14:31;;;;;;;;;7.33;6.00;;;;;;;;4845153;29;45515;-63
2023/08/11 09:16:58;;;;;;;;;7.33;4.33;;;;;;;;4845302;29;45539;-63
2023/08/11 09:19:23;;;;;;;;;8.00;5.00;;;;;;;;4845646;29;45562;-63
2023/08/11 09:21:48;;;;;;;;;6.33;5.00;;;;;;;;4843539;29;45511;-63
2023/08/11 09:24:14;;;;;;;;;8.00;6.33;;;;;;;;4845628;29;45407;-63
2023/08/11 09:26:44;;;;;;;;;8.67;8.00;;;;;;;;4845355;29;45451;-63
2023/08/11 09:29:10;;;;;;;;;4.33;4.33;;;;;;;;4845167;29;45395;-63
2023/08/11 09:31:36;;;;;;;;;5.00;5.00;;;;;;;;4844826;29;45488;-63
2023/08/11 09:34:10;;;;;;;;;8.33;4.67;;;;;;;;4845246;29;45406;-63
2023/08/11 09:36:35;;;;;;;;;5.67;5.67;;;;;;;;4845501;29;45519;-63
2023/08/11 09:39:05;;;;;;;;;10.00;7.67;;;;;;;;4845750;29;45365;-63
2023/08/11 09:41:30;;;;;;;;;5.00;5.00;;;;;;;;4845272;29;45510;-63
2023/08/11 09:43:55;;;;;;;;;5.00;5.00;;;;;;;;4845327;29;45383;-63
2023/08/11 09:46:20;;;;;;;;;7.00;6.00;;;;;;;;4845380;29;45350;-63
2023/08/11 09:48:46;;;;;;;;;5.33;5.33;;;;;;;;4845592;29;45429;-63
2023/08/11 09:51:11;;;;;;;;;8.33;5.67;;;;;;;;4843779;29;46710;-63
2023/08/11 09:53:38;;;;;;;;;18.67;16.33;;;;;;;;4845126;29;45515;-63
2023/08/11 09:56:03;;;;;;;;;20.00;17.00;;;;;;;;4845371;29;45293;-63
2023/08/11 09:58:29;;;;;;;;;10.00;5.67;;;;;;;;4844519;29;45529;-63
2023/08/11 10:00:55;;;;;;;;;7.00;7.00;;;;;;;;4843939;29;47323;-63
2023/08/11 10:03:28;;;;;;;;;5.00;5.00;;;;;;;;4844685;29;45463;-63
2023/08/11 10:05:54;;;;;;;;;6.67;3.33;;;;;;;;4844137;29;45337;-63
2023/08/11 10:08:20;;;;;;;;;5.33;4.67;;;;;;;;4843877;29;45696;-63
2023/08/11 10:10:45;;;;;;;;;3.67;3.33;;;;;;;;4835347;29;45410;-64
2023/08/11 10:13:14;;;;;;;;;7.33;4.67;;;;;;;;4844440;29;45545;-64
2023/08/11 10:15:39;;;;;;;;;6.33;3.00;;;;;;;;4843537;29;45424;-64
2023/08/11 10:18:05;;;;;;;;;5.33;4.00;;;;;;;;4844965;29;45424;-64
2023/08/11 10:20:31;;;;;;;;;3.67;3.67;;;;;;;;4843958;29;46516;-64
2023/08/11 10:22:56;;;;;;;;;3.00;3.00;;;;;;;;4847314;29;45502;-64
2023/08/11 10:25:23;;;;;;;;;6.33;4.00;;;;;;;;4846995;29;45416;-64
2023/08/11 10:27:49;;;;;;;;;6.00;4.67;;;;;;;;4844954;29;45354;-64
2023/08/11 10:30:14;;;;;;;;;6.00;4.33;;;;;;;;4844289;29;47408;-64
2023/08/11 10:32:40;;;;;;;;;3.33;3.33;;;;;;;;4843122;29;45777;-64
2023/08/11 10:35:06;;;;;;;;;5.67;5.00;;;;;;;;4844403;29;45469;-64
2023/08/11 10:37:31;;;;;;;;;9.33;7.67;;;;;;;;4844439;29;45526;-64
2023/08/11 10:40:07;;;;;;;;;8.67;5.67;;;;;;;;4843899;29;45386;-64
2023/08/11 10:42:35;;;;;;;;;4.00;3.67;;;;;;;;4844423;29;45358;-64
2023/08/11 10:45:09;;;;;;;;;4.33;4.33;;;;;;;;4844438;29;45412;-63
2023/08/11 10:47:38;;;;;;;;;7.00;4.67;;;;;;;;4844571;29;45386;-64
2023/08/11 10:50:06;;;;;;;;;8.00;6.00;;;;;;;;4842635;29;45272;-63
2023/08/11 10:52:34;;;;;;;;;6.33;4.33;;;;;;;;4844249;29;45409;-64
2023/08/11 10:55:02;;;;;;;;;5.00;3.00;;;;;;;;4844034;29;45513;-64
2023/08/11 10:57:30;;;;;;;;;3.33;3.33;;;;;;;;4843503;29;45325;-64
2023/08/11 10:59:55;;;;;;;;;5.67;4.00;;;;;;;;4843681;29;47314;-64
2023/08/11 11:02:21;;;;;;;;;6.67;4.67;;;;;;;;4845245;29;45297;-64
2023/08/11 11:04:46;;;;;;;;;3.00;2.67;;;;;;;;4847768;29;45391;-64
2023/08/11 11:07:12;;;;;;;;;7.33;4.33;;;;;;;;4847328;29;45227;-63
2023/08/11 11:09:37;;;;;;;;;7.50;5.50;;;;;;;;4846085;29;45560;-63
2023/08/11 11:12:02;;;;;;;;;9.00;8.33;;;;;;;;4847167;29;45502;-64
2023/08/11 11:14:28;;;;;;;;;6.67;6.67;;;;;;;;4847210;29;45473;-59
2023/08/11 11:16:54;;;;;;;;;7.67;6.00;;;;;;;;4847555;29;45423;-60
2023/08/11 11:19:21;;;;;;;;;7.67;6.00;;;;;;;;4847279;29;46336;-63
2023/08/11 11:21:47;;;;;;;;;6.33;6.00;;;;;;;;4847502;29;45292;-63
2023/08/11 11:24:15;;;;;;;;;9.00;7.00;;;;;;;;4845884;29;45365;-63
2023/08/11 11:26:42;;;;;;;;;9.33;7.00;;;;;;;;4846507;29;45526;-60
2023/08/11 11:29:07;;;;;;;;;9.33;6.33;;;;;;;;4846957;29;47226;-62
2023/08/11 11:31:33;;;;;;;;;9.00;7.00;;;;;;;;4843489;29;45782;-59
2023/08/11 11:33:59;;;;;;;;;7.00;6.00;;;;;;;;4846961;29;45703;-61
2023/08/11 11:36:24;;;;;;;;;5.67;5.67;;;;;;;;4846705;29;45397;-60
2023/08/11 11:38:49;;;;;;;;;5.67;5.67;;;;;;;;4846537;29;46079;-63
2023/08/11 11:41:16;;;;;;;;;6.00;6.00;;;;;;;;4846413;29;45263;-64
2023/08/11 11:43:43;;;;;;;;;8.00;6.00;;;;;;;;4846372;29;45165;-67
2023/08/11 11:46:15;;;;;;;;;8.33;7.00;;;;;;;;4846211;29;45235;-63
2023/08/11 11:48:47;;;;;;;;;7.00;6.67;;;;;;;;4846246;29;46752;-63
2023/08/11 11:51:13;;;;;;;;;6.33;4.67;;;;;;;;4846039;29;45400;-62
2023/08/11 11:53:38;;;;;;;;;7.67;5.00;;;;;;;;4846147;29;45383;-61
2023/08/11 11:56:04;;;;;;;;;10.33;5.33;;;;;;;;4846402;29;45363;-63
2023/08/11 11:58:29;;;;;;;;;5.67;4.33;;;;;;;;4846163;29;45524;-62
2023/08/11 12:00:55;;;;;;;;;6.00;6.00;;;;;;;;4845499;29;45457;-61
2023/08/11 12:03:22;;;;;;;;;7.00;6.33;;;;;;;;4846158;29;45421;-62
2023/08/11 12:05:47;;;;;;;;;11.33;10.33;;;;;;;;4845853;29;45371;-63
2023/08/11 12:08:16;;;;;;;;;8.33;6.00;;;;;;;;4845764;29;46466;-63
2023/08/11 12:10:44;;;;;;;;;7.00;6.00;;;;;;;;4845822;29;45577;-63
2023/08/11 12:13:09;;;;;;;;;6.00;6.00;;;;;;;;4845108;29;45947;-63
2023/08/11 12:15:34;;;;;;;;;3.33;3.33;;;;;;;;4846830;29;45299;-63
2023/08/11 12:18:03;;;;;;;;;5.33;5.33;;;;;;;;4846669;29;46476;-63
2023/08/11 12:20:28;;;;;;;;;5.33;5.33;;;;;;;;4846558;29;45327;-63
2023/08/11 12:22:53;;;;;;;;;8.00;8.00;;;;;;;;4846557;29;45451;-63
2023/08/11 12:25:19;;;;;;;;;14.33;9.33;;;;;;;;4846846;29;45224;-63
2023/08/11 12:27:44;;;;;;;;;7.33;6.00;;;;;;;;4846504;29;46605;-63
2023/08/11 12:30:10;;;;;;;;;5.00;5.00;;;;;;;;4846609;29;45488;-63
2023/08/11 12:32:36;;;;;;;;;9.67;6.00;;;;;;;;4846612;29;45424;-64
2023/08/11 12:35:02;;;;;;;;;5.33;5.33;;;;;;;;4846611;29;45386;-63
2023/08/11 12:37:27;;;;;;;;;10.00;6.00;;;;;;;;4846294;29;47349;-63
2023/08/11 12:39:53;;;;;;;;;8.00;7.00;;;;;;;;4846398;29;45336;-63
2023/08/11 12:42:18;;;;;;;;;7.33;6.00;;;;;;;;4846765;29;45235;-63
2023/08/11 12:44:43;;;;;;;;;7.67;4.67;;;;;;;;4846534;29;45412;-65
2023/08/11 12:47:08;;;;;;;;;5.00;3.33;;;;;;;;4846216;29;47467;-63
2023/08/11 12:49:33;;;;;;;;;8.33;6.33;;;;;;;;4846407;29;45397;-63
2023/08/11 12:51:59;;;;;;;;;6.00;4.33;;;;;;;;4846420;29;45749;-64
2023/08/11 12:54:24;;;;;;;;;4.67;4.33;;;;;;;;4846699;29;45349;-63
2023/08/11 12:56:49;;;;;;;;;5.33;5.00;;;;;;;;4846168;29;45822;-63
2023/08/11 12:59:14;;;;;;;;;4.00;4.00;;;;;;;;4846015;29;45353;-63
2023/08/11 13:01:40;;;;;;;;;7.00;4.00;;;;;;;;4846360;29;45471;-63
2023/08/11 13:04:06;;;;;;;;;4.67;4.67;;;;;;;;4846351;29;45342;-63
2023/08/11 13:06:32;;;;;;;;;8.33;5.33;;;;;;;;4856312;29;46219;-63
2023/08/11 13:08:57;;;;;;;;;6.00;6.00;;;;;;;;4864101;29;45294;-63
2023/08/11 13:11:22;;;;;;;;;4.33;4.33;;;;;;;;4856128;29;45320;-63
2023/08/11 13:13:48;;;;;;;;;10.00;8.00;;;;;;;;4845944;29;45417;-63
2023/08/11 13:16:13;;;;;;;;;8.00;6.67;;;;;;;;4845712;29;46630;-63
2023/08/11 13:18:38;;;;;;;;;6.33;5.00;;;;;;;;4845732;29;45367;-63
2023/08/11 13:21:04;;;;;;;;;7.00;5.67;;;;;;;;4845803;29;45385;-63
2023/08/11 13:23:31;;;;;;;;;7.67;7.67;;;;;;;;4853933;29;45415;-63
2023/08/11 13:25:57;;;;;;;;;4.00;4.00;;;;;;;;4845668;29;46716;-64
2023/08/11 13:28:22;;;;;;;;;4.00;4.00;;;;;;;;4845207;29;45422;-62
2023/08/11 13:30:48;;;;;;;;;5.33;4.00;;;;;;;;4844176;29;45410;-64
2023/08/11 13:33:13;;;;;;;;;4.33;4.33;;;;;;;;4845686;29;45710;-64
2023/08/11 13:35:38;;;;;;;;;9.00;5.00;;;;;;;;4844858;29;46334;-65
2023/08/11 13:38:03;;;;;;;;;2.67;2.67;;;;;;;;4845520;29;45455;-64
2023/08/11 13:40:28;;;;;;;;;5.33;5.00;;;;;;;;4844794;29;45372;-64
2023/08/11 13:42:53;;;;;;;;;9.00;4.33;;;;;;;;4845146;29;45660;-63
2023/08/11 13:45:19;;;;;;;;;4.67;4.33;;;;;;;;4844458;29;46130;-62
2023/08/11 13:47:44;;;;;;;;;6.00;5.00;;;;;;;;4842158;29;45870;-66
2023/08/11 13:50:09;;;;;;;;;4.00;4.00;;;;;;;;4844823;29;45313;-65
2023/08/11 13:52:35;;;;;;;;;5.00;4.33;;;;;;;;4845051;29;45558;-64
2023/08/11 13:55:01;;;;;;;;;4.00;4.00;;;;;;;;4844171;29;47125;-65
2023/08/11 13:57:26;;;;;;;;;4.67;3.00;;;;;;;;4844478;29;45306;-65
2023/08/11 13:59:54;;;;;;;;;4.00;4.00;;;;;;;;4843258;29;45408;-66
2023/08/11 14:02:19;;;;;;;;;5.33;4.67;;;;;;;;4844055;29;45331;-63
2023/08/11 14:04:44;;;;;;;;;7.00;5.00;;;;;;;;4844383;29;45488;-63
2023/08/11 14:07:09;;;;;;;;;6.00;6.00;;;;;;;;4844311;29;45339;-62
2023/08/11 14:09:34;;;;;;;;;7.00;5.33;;;;;;;;4844365;29;45606;-62
2023/08/11 14:12:00;;;;;;;;;6.00;4.33;;;;;;;;4844578;29;45579;-62
2023/08/11 14:14:25;;;;;;;;;5.00;3.67;;;;;;;;4844359;29;45379;-63
2023/08/11 14:16:50;;;;;;;;;4.00;4.00;;;;;;;;4842642;29;45464;-63
2023/08/11 14:19:15;;;;;;;;;3.00;3.00;;;;;;;;4844465;29;45414;-62
2023/08/11 14:21:40;;;;;;;;;4.67;4.00;;;;;;;;4844405;29;45336;-62
2023/08/11 14:24:06;;;;;;;;;6.33;5.00;;;;;;;;4844221;29;45415;-62
2023/08/11 14:26:31;;;;;;;;;5.00;5.00;;;;;;;;4843999;29;45258;-62
2023/08/11 14:28:57;;;;;;;;;6.67;5.00;;;;;;;;4844361;29;45341;-62
2023/08/11 14:31:22;;;;;;;;;4.00;4.00;;;;;;;;4843951;29;45462;-63